createdAt,value
2023-02-17T00:01:38.917Z,14.13
2023-02-17T00:04:07.220Z,18.60
2023-02-17T00:06:35.681Z,11.73
2023-02-17T00:09:05.437Z,13.05
2023-02-17T00:11:33.999Z,12.60
2023-02-17T00:14:02.371Z,12.60
2023-02-17T00:16:30.956Z,12.40
2023-02-17T00:19:01.278Z,11.43
2023-02-17T00:21:31.957Z,11.30
2023-02-17T00:24:01.082Z,14.23
2023-02-17T00:26:30.751Z,12.98
2023-02-17T00:29:00.158Z,12.85
2023-02-17T00:31:28.617Z,11.65
2023-02-17T00:33:57.545Z,11.65
2023-02-17T00:36:27.186Z,12.18
2023-02-17T00:38:57.262Z,12.75
2023-02-17T00:41:26.548Z,14.55
2023-02-17T00:43:56.470Z,11.93
2023-02-17T00:46:25.745Z,12.10
2023-02-17T00:48:54.513Z,10.93
2023-02-17T00:51:23.299Z,12.60
2023-02-17T00:53:52.720Z,10.93
2023-02-17T00:56:21.120Z,13.02
2023-02-17T00:58:49.455Z,11.45
2023-02-17T01:01:19.725Z,12.27
2023-02-17T01:03:48.067Z,11.93
2023-02-17T01:06:25.998Z,10.38
2023-02-17T01:08:55.228Z,9.98
2023-02-17T01:11:25.862Z,10.25
2023-02-17T01:13:55.152Z,11.70
2023-02-17T01:16:26.974Z,10.60
2023-02-17T01:18:55.913Z,13.23
2023-02-17T01:21:25.920Z,13.20
2023-02-17T01:23:57.242Z,13.25
2023-02-17T01:26:27.214Z,12.82
2023-02-17T01:28:55.674Z,11.85
2023-02-17T01:31:27.124Z,11.13
2023-02-17T01:33:57.590Z,11.25
2023-02-17T01:36:25.942Z,10.63
2023-02-17T01:38:54.350Z,10.80
2023-02-17T01:41:26.821Z,14.18
2023-02-17T01:44:10.929Z,9.85
2023-02-17T01:46:42.157Z,11.87
2023-02-17T01:49:20.866Z,10.55
2023-02-17T01:51:53.791Z,12.85
2023-02-17T01:54:27.655Z,13.10
2023-02-17T01:57:00.517Z,14.98
2023-02-17T01:59:30.929Z,12.93
2023-02-17T02:02:04.352Z,12.30
2023-02-17T02:04:36.143Z,11.50
2023-02-17T02:07:07.347Z,13.13
2023-02-17T02:09:38.177Z,12.65
2023-02-17T02:12:18.064Z,12.15
2023-02-17T02:14:47.684Z,11.95
2023-02-17T02:17:29.735Z,9.52
2023-02-17T02:20:34.750Z,11.85
2023-02-17T02:23:38.195Z,10.60
2023-02-17T02:26:33.644Z,11.55
2023-02-17T02:29:25.716Z,11.10
2023-02-17T02:32:10.668Z,12.35
2023-02-17T02:34:48.445Z,11.98
2023-02-17T02:37:21.906Z,9.18
2023-02-17T02:39:53.849Z,11.60
2023-02-17T02:42:24.785Z,10.52
2023-02-17T02:44:53.191Z,12.85
2023-02-17T02:47:45.200Z,10.90
2023-02-17T02:50:20.893Z,10.15
2023-02-17T02:53:02.489Z,11.20
2023-02-17T02:55:42.949Z,9.93
2023-02-17T02:58:18.215Z,12.43
2023-02-17T03:00:55.223Z,10.60
2023-02-17T03:03:29.589Z,9.82
2023-02-17T03:06:08.146Z,10.52
2023-02-17T03:08:41.408Z,10.13
2023-02-17T03:11:09.873Z,9.45
2023-02-17T03:13:39.558Z,10.45
2023-02-17T03:16:12.154Z,10.48
2023-02-17T03:18:40.534Z,12.27
2023-02-17T03:21:15.340Z,9.80
2023-02-17T03:23:44.468Z,9.98
2023-02-17T03:26:12.860Z,9.80
2023-02-17T03:28:41.331Z,9.93
2023-02-17T03:31:09.766Z,9.00
2023-02-17T03:33:38.192Z,10.27
2023-02-17T03:36:07.697Z,10.23
2023-02-17T03:38:37.603Z,11.05
2023-02-17T03:41:05.968Z,9.27
2023-02-17T03:43:35.305Z,10.70
2023-02-17T03:46:03.851Z,10.70
2023-02-17T03:48:32.268Z,10.38
2023-02-17T03:51:03.255Z,10.90
2023-02-17T03:53:31.563Z,9.63
2023-02-17T03:56:01.315Z,10.88
2023-02-17T03:58:29.624Z,10.32
2023-02-17T04:00:57.990Z,9.50
2023-02-17T04:03:27.040Z,10.65
2023-02-17T04:05:55.504Z,9.10
2023-02-17T04:08:24.540Z,9.43
2023-02-17T04:10:53.767Z,9.13
2023-02-17T04:13:24.073Z,9.35
2023-02-17T04:15:52.776Z,11.20
2023-02-17T04:18:21.851Z,9.90
2023-02-17T04:20:51.377Z,10.10
2023-02-17T04:23:19.911Z,8.82
2023-02-17T04:25:49.183Z,8.73
2023-02-17T04:28:18.666Z,9.73
2023-02-17T04:30:49.737Z,9.10
2023-02-17T04:33:18.502Z,9.88
2023-02-17T04:35:48.473Z,9.75
2023-02-17T04:38:17.010Z,9.48
2023-02-17T04:40:45.410Z,10.15
2023-02-17T04:43:13.795Z,10.45
2023-02-17T04:45:42.205Z,9.68
2023-02-17T04:48:11.922Z,9.20
2023-02-17T04:50:40.385Z,11.23
2023-02-17T04:53:09.136Z,11.10
2023-02-17T04:55:37.495Z,10.63
2023-02-17T04:58:05.899Z,10.15
2023-02-17T05:00:34.305Z,11.60
2023-02-17T05:03:02.864Z,10.82
2023-02-17T05:05:32.542Z,10.38
2023-02-17T05:08:00.854Z,8.70
2023-02-17T05:10:29.369Z,9.85
2023-02-17T05:12:57.729Z,10.32
2023-02-17T05:15:26.065Z,11.35
2023-02-17T05:17:54.492Z,11.75
2023-02-17T05:20:23.025Z,10.90
2023-02-17T05:22:52.793Z,10.75
2023-02-17T05:25:21.109Z,12.52
2023-02-17T05:27:49.534Z,12.25
2023-02-17T05:30:18.033Z,11.73
2023-02-17T05:32:46.440Z,10.30
2023-02-17T05:35:15.008Z,11.00
2023-02-17T05:37:43.358Z,11.75
2023-02-17T05:40:13.523Z,11.50
2023-02-17T05:42:41.930Z,10.75
2023-02-17T05:45:10.591Z,11.77
2023-02-17T05:47:38.934Z,10.77
2023-02-17T05:50:08.548Z,10.63
2023-02-17T05:52:36.900Z,9.70
2023-02-17T05:55:05.716Z,11.23
2023-02-17T05:57:35.599Z,10.80
2023-02-17T06:00:05.301Z,9.57
2023-02-17T06:02:40.470Z,10.38
2023-02-17T06:05:09.893Z,10.45
2023-02-17T06:07:38.314Z,8.48
2023-02-17T06:10:08.564Z,10.05
2023-02-17T06:12:38.337Z,9.00
2023-02-17T06:15:07.516Z,9.02
2023-02-17T06:17:35.935Z,9.85
2023-02-17T06:20:04.742Z,9.82
2023-02-17T06:22:33.096Z,9.75
2023-02-17T06:25:01.528Z,10.07
2023-02-17T06:27:29.857Z,11.48
2023-02-17T06:29:59.628Z,9.32
2023-02-17T06:32:28.148Z,9.18
2023-02-17T06:34:56.524Z,9.38
2023-02-17T06:37:24.900Z,9.82
2023-02-17T06:39:53.268Z,9.05
2023-02-17T06:42:21.600Z,9.65
2023-02-17T06:44:49.881Z,11.07
2023-02-17T06:47:19.656Z,10.45
2023-02-17T06:49:48.084Z,9.88
2023-02-17T06:52:16.510Z,10.73
2023-02-17T06:54:47.164Z,10.25
2023-02-17T06:57:15.584Z,11.23
2023-02-17T06:59:43.956Z,10.60
2023-02-17T07:02:13.298Z,11.05
2023-02-17T07:04:44.115Z,10.85
2023-02-17T07:07:13.020Z,11.85
2023-02-17T07:09:41.520Z,9.65
2023-02-17T07:12:09.923Z,10.95
2023-02-17T07:14:38.303Z,11.35
2023-02-17T07:17:06.700Z,10.98
2023-02-17T07:19:35.092Z,9.02
2023-02-17T07:22:04.879Z,11.68
2023-02-17T07:24:33.986Z,9.57
2023-02-17T07:27:02.383Z,9.10
2023-02-17T07:29:30.769Z,9.55
2023-02-17T07:31:59.166Z,9.80
2023-02-17T07:34:27.693Z,10.10
2023-02-17T07:36:56.048Z,10.70
2023-02-17T07:39:25.864Z,10.25
2023-02-17T07:41:54.175Z,8.57
2023-02-17T07:44:22.559Z,11.05
2023-02-17T07:46:51.049Z,12.63
2023-02-17T07:49:19.424Z,10.30
2023-02-17T07:51:47.893Z,8.65
2023-02-17T07:54:17.312Z,10.20
2023-02-17T07:56:47.055Z,8.98
2023-02-17T07:59:15.814Z,10.57
2023-02-17T08:01:44.266Z,9.52
2023-02-17T08:04:12.731Z,10.25
2023-02-17T08:06:41.090Z,11.98
2023-02-17T08:09:28.998Z,10.05
2023-02-17T08:12:16.134Z,9.70
2023-02-17T08:14:44.503Z,11.25
2023-02-17T08:17:12.865Z,9.90
2023-02-17T08:19:48.560Z,10.73
2023-02-17T08:22:17.395Z,10.32
2023-02-17T08:24:46.404Z,10.10
2023-02-17T08:27:16.704Z,10.05
2023-02-17T08:29:45.973Z,10.10
2023-02-17T08:32:16.439Z,11.63
2023-02-17T08:34:45.565Z,11.50
2023-02-17T08:37:13.923Z,10.40
2023-02-17T08:39:42.298Z,10.48
2023-02-17T08:42:12.080Z,10.85
2023-02-17T08:44:44.333Z,11.00
2023-02-17T08:47:15.352Z,9.68
2023-02-17T08:49:43.726Z,10.75
2023-02-17T08:52:13.234Z,9.75
2023-02-17T08:54:41.580Z,9.15
2023-02-17T08:57:09.951Z,9.43
2023-02-17T08:59:38.299Z,10.82
2023-02-17T09:02:08.274Z,10.02
2023-02-17T09:04:36.781Z,9.98
2023-02-17T09:07:05.313Z,7.45
2023-02-17T09:09:34.845Z,8.35
2023-02-17T09:12:03.458Z,10.13
2023-02-17T09:14:31.766Z,9.27
2023-02-17T09:17:00.301Z,10.50
2023-02-17T09:19:30.334Z,8.93
2023-02-17T09:21:58.642Z,9.20
2023-02-17T09:24:27.113Z,11.77
2023-02-17T09:26:55.701Z,9.23
2023-02-17T09:29:24.239Z,9.73
2023-02-17T09:31:52.598Z,10.35
2023-02-17T09:34:20.973Z,9.45
2023-02-17T09:36:51.272Z,10.13
2023-02-17T09:39:19.664Z,7.53
2023-02-17T09:41:52.230Z,10.27
2023-02-17T09:44:24.766Z,8.77
2023-02-17T09:47:02.542Z,8.18
2023-02-17T09:49:37.749Z,9.85
2023-02-17T09:52:12.474Z,8.70
2023-02-17T09:54:50.664Z,9.98
2023-02-17T09:57:24.772Z,8.43
2023-02-17T09:59:56.507Z,8.48
2023-02-17T10:02:33.003Z,8.77
2023-02-17T10:05:04.646Z,7.55
2023-02-17T10:07:40.579Z,9.45
2023-02-17T10:10:15.908Z,8.00
2023-02-17T10:12:48.669Z,8.90
2023-02-17T10:15:20.782Z,8.15
2023-02-17T10:17:56.765Z,8.00
2023-02-17T10:20:29.369Z,8.10
2023-02-17T10:23:05.327Z,8.02
2023-02-17T10:25:51.875Z,8.60
2023-02-17T10:28:26.897Z,7.90
2023-02-17T10:31:03.086Z,7.75
2023-02-17T10:33:37.657Z,7.25
2023-02-17T10:36:15.384Z,9.07
2023-02-17T10:38:52.134Z,7.03
2023-02-17T10:41:24.880Z,7.13
2023-02-17T10:43:53.649Z,7.47
2023-02-17T10:46:30.214Z,7.65
2023-02-17T10:49:00.629Z,8.32
2023-02-17T10:51:31.640Z,7.85
2023-02-17T10:54:06.836Z,8.55
2023-02-17T10:56:39.513Z,8.90
2023-02-17T10:59:14.627Z,8.07
2023-02-17T11:01:43.311Z,8.27
2023-02-17T11:04:14.173Z,8.50
2023-02-17T11:06:45.364Z,7.80
2023-02-17T11:09:28.491Z,7.93
2023-02-17T11:12:01.653Z,7.53
2023-02-17T11:14:33.187Z,7.82
2023-02-17T11:17:06.315Z,7.80
2023-02-17T11:19:36.386Z,7.85
2023-02-17T11:22:07.788Z,7.65
2023-02-17T11:24:39.004Z,7.05
2023-02-17T11:27:12.948Z,7.90
2023-02-17T11:29:41.390Z,7.60
2023-02-17T11:32:13.845Z,8.18
2023-02-17T11:34:44.195Z,6.90
2023-02-17T11:37:21.892Z,7.20
2023-02-17T11:39:54.317Z,7.45
2023-02-17T11:42:26.449Z,7.32
2023-02-17T11:44:57.037Z,7.13
2023-02-17T11:47:36.039Z,6.82
2023-02-17T11:50:40.342Z,7.00
2023-02-17T11:53:21.183Z,7.82
2023-02-17T11:56:03.236Z,8.10
2023-02-17T11:58:42.390Z,6.85
2023-02-17T12:01:24.028Z,6.82
2023-02-17T12:04:24.935Z,6.60
2023-02-17T12:07:06.905Z,6.20
2023-02-17T12:09:47.167Z,7.57
2023-02-17T12:12:25.211Z,6.90
2023-02-17T12:15:04.392Z,6.03
2023-02-17T12:17:42.920Z,7.10
2023-02-17T12:20:32.690Z,7.22
2023-02-17T12:23:11.763Z,6.78
2023-02-17T12:25:48.040Z,6.32
2023-02-17T12:28:47.878Z,7.35
2023-02-17T12:31:30.508Z,5.97
2023-02-17T12:34:03.781Z,5.75
2023-02-17T12:36:35.704Z,7.13
2023-02-17T12:39:12.790Z,6.82
2023-02-17T12:41:46.691Z,6.40
2023-02-17T12:44:21.790Z,5.55
2023-02-17T12:46:54.930Z,5.72
2023-02-17T12:49:32.161Z,5.10
2023-02-17T12:52:06.254Z,6.20
2023-02-17T12:54:41.746Z,5.75
2023-02-17T12:57:16.424Z,5.53
2023-02-17T12:59:47.861Z,6.45
2023-02-17T13:02:17.738Z,6.38
2023-02-17T13:04:50.353Z,6.78
2023-02-17T13:07:34.197Z,5.82
2023-02-17T13:10:03.047Z,7.05
2023-02-17T13:12:42.804Z,5.28
2023-02-17T13:15:46.562Z,6.15
2023-02-17T13:18:28.478Z,5.50
2023-02-17T13:20:59.660Z,6.00
2023-02-17T13:23:39.900Z,5.93
2023-02-17T13:26:31.604Z,5.90
2023-02-17T13:29:21.335Z,4.97
2023-02-17T13:31:54.317Z,5.35
2023-02-17T13:34:28.651Z,5.43
2023-02-17T13:36:57.629Z,5.72
2023-02-17T13:39:37.627Z,6.22
2023-02-17T13:42:22.416Z,6.10
2023-02-17T13:44:52.707Z,4.82
2023-02-17T13:47:29.575Z,5.72
2023-02-17T13:49:58.800Z,6.18
2023-02-17T13:52:29.037Z,7.80
2023-02-17T13:54:59.821Z,5.20
2023-02-17T13:57:30.487Z,5.38
2023-02-17T14:00:10.202Z,4.93
2023-02-17T14:02:49.819Z,5.80
2023-02-17T14:05:20.442Z,5.63
2023-02-17T14:07:49.997Z,4.82
2023-02-17T14:10:20.941Z,4.50
2023-02-17T14:12:50.086Z,4.13
2023-02-17T14:15:19.970Z,5.03
2023-02-17T14:17:50.080Z,4.70
2023-02-17T14:20:32.291Z,4.80
2023-02-17T14:23:04.541Z,5.03
2023-02-17T14:25:35.557Z,5.15
2023-02-17T14:28:04.517Z,4.10
2023-02-17T14:30:34.981Z,4.10
2023-02-17T14:33:09.594Z,4.85
2023-02-17T14:35:39.384Z,3.90
2023-02-17T14:38:09.801Z,4.53
2023-02-17T14:40:40.090Z,3.80
2023-02-17T14:43:10.967Z,3.38
2023-02-17T14:45:41.744Z,4.00
2023-02-17T14:48:11.527Z,4.57
2023-02-17T14:50:42.413Z,3.67
2023-02-17T14:53:20.879Z,3.40
2023-02-17T14:55:53.697Z,4.72
2023-02-17T14:58:30.154Z,3.65
2023-02-17T15:00:58.727Z,4.13
2023-02-17T15:03:28.857Z,3.42
2023-02-17T15:06:01.823Z,2.90
2023-02-17T15:08:34.990Z,3.00
2023-02-17T15:11:04.215Z,3.13
2023-02-17T15:13:32.730Z,3.63
2023-02-17T15:16:01.236Z,4.15
2023-02-17T15:18:31.161Z,3.05
2023-02-17T15:20:59.533Z,3.75
2023-02-17T15:23:32.958Z,4.43
2023-02-17T15:26:01.451Z,4.03
2023-02-17T15:28:29.869Z,4.00
2023-02-17T15:30:58.189Z,4.78
2023-02-17T15:33:26.706Z,5.20
2023-02-17T15:35:56.719Z,5.10
2023-02-17T15:38:27.206Z,4.03
2023-02-17T15:40:58.624Z,7.03
2023-02-17T15:46:11.722Z,4.05
2023-02-17T15:48:40.216Z,4.70
2023-02-17T15:51:12.299Z,5.82
2023-02-17T15:53:40.804Z,5.32
2023-02-17T15:56:15.533Z,5.30
2023-02-17T15:58:44.622Z,6.75
2023-02-17T16:01:19.652Z,6.35
2023-02-17T16:03:48.369Z,5.97
2023-02-17T16:06:18.077Z,5.32
2023-02-17T16:08:46.356Z,5.28
2023-02-17T16:11:19.290Z,5.47
2023-02-17T16:13:48.859Z,6.18
2023-02-17T16:16:20.415Z,5.15
2023-02-17T16:18:49.107Z,5.32
2023-02-17T16:21:19.218Z,5.30
2023-02-17T16:23:50.237Z,4.90
2023-02-17T16:26:27.137Z,4.80
2023-02-17T16:28:55.886Z,5.07
2023-02-17T16:31:24.572Z,5.03
2023-02-17T16:33:59.422Z,5.60
2023-02-17T16:36:34.810Z,4.60
2023-02-17T16:39:10.742Z,5.28
2023-02-17T16:41:39.374Z,4.88
2023-02-17T16:44:08.199Z,4.57
2023-02-17T16:46:38.240Z,5.25
2023-02-17T16:49:22.318Z,4.60
2023-02-17T16:51:53.973Z,5.70
2023-02-17T16:54:22.296Z,5.50
2023-02-17T16:56:52.748Z,5.45
2023-02-17T16:59:23.958Z,5.43
2023-02-17T17:01:54.330Z,5.00
2023-02-17T17:04:22.881Z,5.80
2023-02-17T17:06:53.194Z,5.82
2023-02-17T17:09:25.139Z,4.25
2023-02-17T17:11:53.659Z,5.22
2023-02-17T17:14:22.157Z,6.07
2023-02-17T17:16:53.429Z,5.60
2023-02-17T17:19:22.447Z,5.43
2023-02-17T17:21:50.982Z,5.47
2023-02-17T17:24:21.198Z,5.45
2023-02-17T17:26:51.685Z,5.30
2023-02-17T17:29:20.939Z,6.07
2023-02-17T17:31:49.466Z,6.38
2023-02-17T17:34:17.973Z,7.00
2023-02-17T17:36:47.646Z,6.65
2023-02-17T17:39:17.629Z,6.85
2023-02-17T17:41:46.673Z,6.03
2023-02-17T17:44:16.591Z,6.22
2023-02-17T17:46:45.207Z,6.53
2023-02-17T17:49:14.860Z,6.53
2023-02-17T17:51:43.487Z,6.05
2023-02-17T17:54:12.119Z,6.28
2023-02-17T17:56:42.940Z,6.95
2023-02-17T17:59:12.279Z,9.80
2023-02-17T18:01:43.912Z,6.43
2023-02-17T18:04:14.236Z,7.25
2023-02-17T18:06:46.903Z,6.80
2023-02-17T18:09:30.774Z,6.50
2023-02-17T18:14:32.983Z,6.28
2023-02-17T18:17:02.993Z,6.28
2023-02-17T18:19:32.824Z,6.25
2023-02-17T18:22:01.200Z,6.60
2023-02-17T18:24:29.742Z,7.68
2023-02-17T18:26:58.193Z,7.55
2023-02-17T18:29:27.675Z,6.60
2023-02-17T18:31:57.500Z,5.85
2023-02-17T18:34:27.932Z,5.85
2023-02-17T18:36:56.314Z,7.65
2023-02-17T18:39:24.669Z,6.57
2023-02-17T18:41:53.553Z,6.15
2023-02-17T18:44:21.925Z,6.25
2023-02-17T18:46:50.343Z,6.53
2023-02-17T18:49:18.701Z,6.45
2023-02-17T18:51:48.534Z,6.07
2023-02-17T18:54:16.839Z,7.97
2023-02-17T18:56:45.180Z,6.72
2023-02-17T18:59:13.602Z,7.13
2023-02-17T19:01:43.235Z,6.95
2023-02-17T19:04:12.965Z,8.10
2023-02-17T19:06:41.668Z,6.90
2023-02-17T19:09:11.632Z,6.60
2023-02-17T19:11:40.071Z,7.50
2023-02-17T19:14:08.532Z,7.88
2023-02-17T19:16:38.506Z,7.45
2023-02-17T19:19:06.958Z,8.02
2023-02-17T19:21:36.435Z,7.35
2023-02-17T19:24:05.327Z,7.25
2023-02-17T19:26:37.210Z,6.70
2023-02-17T19:29:05.703Z,7.70
2023-02-17T19:31:34.335Z,8.80
2023-02-17T19:34:02.772Z,8.20
2023-02-17T19:36:31.210Z,7.00
2023-02-17T19:38:59.846Z,8.15
2023-02-17T19:41:28.224Z,8.10
2023-02-17T19:43:57.956Z,9.48
2023-02-17T19:46:26.429Z,6.63
2023-02-17T19:48:54.955Z,8.63
2023-02-17T19:51:23.556Z,7.30
2023-02-17T19:53:52.008Z,7.80
2023-02-17T19:56:22.486Z,7.80
2023-02-17T19:58:51.472Z,8.35
2023-02-17T20:01:23.776Z,7.80
2023-02-17T20:03:54.489Z,7.55
2023-02-17T20:06:25.398Z,7.28
2023-02-17T20:08:55.958Z,7.65
2023-02-17T20:11:24.724Z,8.13
2023-02-17T20:13:53.558Z,9.18
2023-02-17T20:16:23.372Z,8.38
2023-02-17T20:18:52.338Z,8.75
2023-02-17T20:21:23.817Z,9.75
2023-02-17T20:23:52.570Z,8.40
2023-02-17T20:26:23.836Z,8.15
2023-02-17T20:28:52.847Z,8.52
2023-02-17T20:31:23.121Z,9.15
2023-02-17T20:33:52.406Z,10.00
2023-02-17T20:36:22.180Z,9.43
2023-02-17T20:38:51.124Z,9.93
2023-02-17T20:41:24.617Z,9.80
2023-02-17T20:43:53.308Z,9.27
2023-02-17T20:46:25.914Z,8.68
2023-02-17T20:48:55.400Z,8.43
2023-02-17T20:51:24.297Z,8.93
2023-02-17T20:53:52.753Z,8.93
2023-02-17T20:56:23.359Z,9.77
2023-02-17T20:58:53.054Z,9.02
2023-02-17T21:01:22.783Z,10.18
2023-02-17T21:03:51.148Z,9.07
2023-02-17T21:06:22.877Z,10.18
2023-02-17T21:08:52.800Z,9.55
2023-02-17T21:11:21.365Z,9.45
2023-02-17T21:13:50.361Z,10.95
2023-02-17T21:16:21.668Z,10.98
2023-02-17T21:18:51.888Z,10.40
2023-02-17T21:21:20.858Z,10.90
2023-02-17T21:23:49.187Z,13.05
2023-02-17T21:26:18.535Z,10.95
2023-02-17T21:28:47.367Z,10.13
2023-02-17T21:31:16.460Z,9.90
2023-02-17T21:33:44.957Z,9.60
2023-02-17T21:36:17.905Z,11.05
2023-02-17T21:38:47.325Z,9.35
2023-02-17T21:41:17.328Z,11.25
2023-02-17T21:44:02.915Z,10.13
2023-02-17T21:46:31.626Z,9.80
2023-02-17T21:49:01.254Z,10.35
2023-02-17T21:51:31.424Z,10.73
2023-02-17T21:54:00.220Z,10.95
2023-02-17T21:56:28.682Z,11.32
2023-02-17T21:58:57.119Z,11.63
2023-02-17T22:01:27.941Z,11.38
2023-02-17T22:03:57.689Z,10.98
2023-02-17T22:06:28.882Z,9.93
2023-02-17T22:08:59.876Z,10.30
2023-02-17T22:11:30.297Z,12.75
2023-02-17T22:14:00.386Z,10.95
2023-02-17T22:16:30.858Z,11.07
2023-02-17T22:18:59.274Z,10.90
2023-02-17T22:21:27.872Z,9.68
2023-02-17T22:23:57.749Z,9.57
2023-02-17T22:26:28.623Z,9.15
2023-02-17T22:28:57.490Z,9.45
2023-02-17T22:31:27.547Z,11.93
2023-02-17T22:33:57.473Z,10.20
2023-02-17T22:36:27.436Z,10.80
2023-02-17T22:38:55.961Z,11.45
2023-02-17T22:41:25.850Z,12.07
2023-02-17T22:43:55.756Z,11.02
2023-02-17T22:46:27.159Z,11.10
2023-02-17T22:48:57.077Z,10.75
2023-02-17T22:51:27.160Z,10.57
2023-02-17T22:53:55.843Z,11.07
2023-02-17T22:56:24.657Z,11.77
2023-02-17T22:58:56.498Z,11.20
2023-02-17T23:01:28.587Z,10.98
2023-02-17T23:03:57.061Z,12.38
2023-02-17T23:06:27.673Z,11.70
2023-02-17T23:08:57.387Z,11.23
2023-02-17T23:11:45.513Z,10.85
2023-02-17T23:14:17.669Z,9.65
2023-02-17T23:16:46.581Z,8.73
2023-02-17T23:19:16.931Z,10.45
2023-02-17T23:21:46.745Z,9.02
2023-02-17T23:24:15.663Z,9.18
2023-02-17T23:26:44.160Z,10.85
2023-02-17T23:29:12.646Z,9.30
2023-02-17T23:31:42.462Z,10.20
2023-02-17T23:34:13.115Z,10.07
2023-02-17T23:36:41.772Z,10.88
2023-02-17T23:39:10.809Z,11.13
2023-02-17T23:41:40.040Z,13.02
2023-02-17T23:44:10.497Z,13.45
2023-02-17T23:46:39.522Z,11.65
2023-02-17T23:49:09.767Z,11.45
2023-02-17T23:51:38.154Z,10.88
2023-02-17T23:54:06.611Z,11.32
2023-02-17T23:56:37.046Z,12.23
2023-02-17T23:59:05.920Z,11.85
